sensor_id;sensor_type;location;lat;lon;timestamp;pressure;altitude;pressure_sealevel;temperature;humidity
61814;BME280;57055;-35.296;149.168;2023-04-22T00:00:06;96639.32;;;11.30;58.91
61814;BME280;57055;-35.296;149.168;2023-04-22T00:02:34;96634.60;;;11.28;59.09
61814;BME280;57055;-35.296;149.168;2023-04-22T00:05:03;96634.38;;;11.39;59.39
61814;BME280;57055;-35.296;149.168;2023-04-22T00:07:33;96633.75;;;11.42;58.92
61814;BME280;57055;-35.296;149.168;2023-04-22T00:10:02;96627.75;;;11.53;58.61
61814;BME280;57055;-35.296;149.168;2023-04-22T00:12:32;96629.40;;;11.23;58.41
61814;BME280;57055;-35.296;149.168;2023-04-22T00:15:01;96629.42;;;11.33;58.08
61814;BME280;57055;-35.296;149.168;2023-04-22T00:17:29;96630.93;;;11.70;57.72
61814;BME280;57055;-35.296;149.168;2023-04-22T00:19:58;96632.31;;;11.57;57.36
61814;BME280;57055;-35.296;149.168;2023-04-22T00:22:26;96631.06;;;11.71;57.10
61814;BME280;57055;-35.296;149.168;2023-04-22T00:24:56;96627.60;;;11.91;57.13
61814;BME280;57055;-35.296;149.168;2023-04-22T00:27:25;96627.81;;;11.95;57.16
61814;BME280;57055;-35.296;149.168;2023-04-22T00:29:53;96626.11;;;12.11;57.46
61814;BME280;57055;-35.296;149.168;2023-04-22T00:32:22;96622.38;;;12.25;57.19
61814;BME280;57055;-35.296;149.168;2023-04-22T00:34:51;96620.08;;;12.46;57.26
61814;BME280;57055;-35.296;149.168;2023-04-22T00:37:19;96615.63;;;12.52;56.59
61814;BME280;57055;-35.296;149.168;2023-04-22T00:39:48;96615.45;;;12.41;56.29
61814;BME280;57055;-35.296;149.168;2023-04-22T00:42:17;96614.46;;;12.75;55.75
61814;BME280;57055;-35.296;149.168;2023-04-22T00:44:47;96611.76;;;12.60;55.48
61814;BME280;57055;-35.296;149.168;2023-04-22T00:47:19;96613.39;;;12.45;55.14
61814;BME280;57055;-35.296;149.168;2023-04-22T00:49:49;96609.52;;;13.07;54.68
61814;BME280;57055;-35.296;149.168;2023-04-22T00:52:18;96604.57;;;12.94;54.75
61814;BME280;57055;-35.296;149.168;2023-04-22T00:54:47;96605.24;;;13.16;55.04
61814;BME280;57055;-35.296;149.168;2023-04-22T00:57:17;96604.31;;;13.09;55.03
61814;BME280;57055;-35.296;149.168;2023-04-22T00:59:46;96602.10;;;13.13;55.13
61814;BME280;57055;-35.296;149.168;2023-04-22T01:02:16;96592.83;;;13.01;54.66
61814;BME280;57055;-35.296;149.168;2023-04-22T01:04:44;96590.21;;;13.24;54.32
61814;BME280;57055;-35.296;149.168;2023-04-22T01:07:14;96587.19;;;13.34;54.16
61814;BME280;57055;-35.296;149.168;2023-04-22T01:09:43;96584.68;;;13.50;54.27
61814;BME280;57055;-35.296;149.168;2023-04-22T01:12:12;96580.52;;;13.89;53.46
61814;BME280;57055;-35.296;149.168;2023-04-22T01:14:41;96581.45;;;13.77;53.30
61814;BME280;57055;-35.296;149.168;2023-04-22T01:17:11;96577.77;;;13.79;53.31
61814;BME280;57055;-35.296;149.168;2023-04-22T01:19:40;96571.51;;;14.10;53.06
61814;BME280;57055;-35.296;149.168;2023-04-22T01:22:10;96568.13;;;13.93;52.82
61814;BME280;57055;-35.296;149.168;2023-04-22T01:24:40;96564.69;;;14.09;52.76
61814;BME280;57055;-35.296;149.168;2023-04-22T01:27:10;96559.17;;;14.15;52.33
61814;BME280;57055;-35.296;149.168;2023-04-22T01:29:39;96553.89;;;14.08;52.51
61814;BME280;57055;-35.296;149.168;2023-04-22T01:32:08;96551.37;;;14.17;51.74
61814;BME280;57055;-35.296;149.168;2023-04-22T01:34:37;96549.25;;;14.26;51.41
61814;BME280;57055;-35.296;149.168;2023-04-22T01:37:06;96546.75;;;14.40;51.42
61814;BME280;57055;-35.296;149.168;2023-04-22T01:39:36;96545.06;;;14.43;51.23
61814;BME280;57055;-35.296;149.168;2023-04-22T01:42:05;96539.30;;;14.79;50.81
61814;BME280;57055;-35.296;149.168;2023-04-22T01:44:34;96529.94;;;14.82;50.84
61814;BME280;57055;-35.296;149.168;2023-04-22T01:47:03;96527.69;;;14.72;51.08
61814;BME280;57055;-35.296;149.168;2023-04-22T01:49:33;96528.13;;;14.88;50.82
61814;BME280;57055;-35.296;149.168;2023-04-22T01:52:01;96525.60;;;14.79;51.01
61814;BME280;57055;-35.296;149.168;2023-04-22T01:54:30;96524.94;;;14.89;50.86
61814;BME280;57055;-35.296;149.168;2023-04-22T01:56:59;96521.88;;;15.03;50.34
61814;BME280;57055;-35.296;149.168;2023-04-22T01:59:35;96520.27;;;15.06;50.29
61814;BME280;57055;-35.296;149.168;2023-04-22T02:02:03;96514.38;;;15.15;49.98
61814;BME280;57055;-35.296;149.168;2023-04-22T02:04:32;96512.89;;;15.19;50.03
61814;BME280;57055;-35.296;149.168;2023-04-22T02:07:01;96512.04;;;15.06;49.68
61814;BME280;57055;-35.296;149.168;2023-04-22T02:09:30;96505.10;;;15.14;49.33
61814;BME280;57055;-35.296;149.168;2023-04-22T02:12:00;96500.57;;;15.23;49.37
61814;BME280;57055;-35.296;149.168;2023-04-22T02:14:29;96495.37;;;15.26;49.25
61814;BME280;57055;-35.296;149.168;2023-04-22T02:16:58;96486.32;;;15.33;49.21
61814;BME280;57055;-35.296;149.168;2023-04-22T02:19:26;96483.31;;;15.49;49.48
61814;BME280;57055;-35.296;149.168;2023-04-22T02:21:55;96481.94;;;15.54;49.34
61814;BME280;57055;-35.296;149.168;2023-04-22T02:24:24;96476.38;;;16.08;49.20
61814;BME280;57055;-35.296;149.168;2023-04-22T02:26:53;96471.11;;;15.57;49.29
61814;BME280;57055;-35.296;149.168;2023-04-22T02:29:21;96463.89;;;15.67;49.06
61814;BME280;57055;-35.296;149.168;2023-04-22T02:31:50;96459.92;;;15.75;49.14
61814;BME280;57055;-35.296;149.168;2023-04-22T02:34:19;96453.71;;;15.84;48.56
61814;BME280;57055;-35.296;149.168;2023-04-22T02:36:48;96448.02;;;15.92;48.52
61814;BME280;57055;-35.296;149.168;2023-04-22T02:39:17;96442.50;;;15.82;48.38
61814;BME280;57055;-35.296;149.168;2023-04-22T02:41:45;96437.66;;;16.10;48.06
61814;BME280;57055;-35.296;149.168;2023-04-22T02:44:14;96433.51;;;15.89;47.91
61814;BME280;57055;-35.296;149.168;2023-04-22T02:46:42;96430.81;;;15.97;47.24
61814;BME280;57055;-35.296;149.168;2023-04-22T02:49:11;96427.49;;;16.09;47.24
61814;BME280;57055;-35.296;149.168;2023-04-22T02:51:39;96424.95;;;16.20;46.90
61814;BME280;57055;-35.296;149.168;2023-04-22T02:54:08;96420.53;;;16.37;47.10
61814;BME280;57055;-35.296;149.168;2023-04-22T02:56:37;96415.91;;;16.61;47.34
61814;BME280;57055;-35.296;149.168;2023-04-22T02:59:05;96412.70;;;16.45;46.75
61814;BME280;57055;-35.296;149.168;2023-04-22T03:01:34;96405.78;;;16.30;46.74
61814;BME280;57055;-35.296;149.168;2023-04-22T03:04:03;96405.31;;;16.37;46.71
61814;BME280;57055;-35.296;149.168;2023-04-22T03:06:32;96404.84;;;16.62;46.52
61814;BME280;57055;-35.296;149.168;2023-04-22T03:09:00;96400.89;;;16.73;46.34
61814;BME280;57055;-35.296;149.168;2023-04-22T03:11:29;96398.52;;;16.83;46.13
61814;BME280;57055;-35.296;149.168;2023-04-22T03:14:04;96394.70;;;16.54;45.88
61814;BME280;57055;-35.296;149.168;2023-04-22T03:16:34;96392.41;;;17.00;45.35
61814;BME280;57055;-35.296;149.168;2023-04-22T03:19:02;96391.25;;;17.10;44.41
61814;BME280;57055;-35.296;149.168;2023-04-22T03:21:31;96383.76;;;16.87;43.92
61814;BME280;57055;-35.296;149.168;2023-04-22T03:23:59;96377.81;;;16.99;43.90
61814;BME280;57055;-35.296;149.168;2023-04-22T03:26:28;96373.44;;;17.06;44.44
61814;BME280;57055;-35.296;149.168;2023-04-22T03:28:57;96372.80;;;16.93;44.35
61814;BME280;57055;-35.296;149.168;2023-04-22T03:31:25;96373.23;;;17.15;44.64
61814;BME280;57055;-35.296;149.168;2023-04-22T03:33:54;96370.80;;;17.11;44.75
61814;BME280;57055;-35.296;149.168;2023-04-22T03:36:22;96369.29;;;17.17;44.97
61814;BME280;57055;-35.296;149.168;2023-04-22T03:38:51;96367.58;;;17.23;45.29
61814;BME280;57055;-35.296;149.168;2023-04-22T03:41:19;96365.28;;;16.82;44.94
61814;BME280;57055;-35.296;149.168;2023-04-22T03:43:48;96363.11;;;17.30;44.91
61814;BME280;57055;-35.296;149.168;2023-04-22T03:46:16;96360.12;;;17.23;44.81
61814;BME280;57055;-35.296;149.168;2023-04-22T03:48:45;96355.61;;;17.59;44.64
61814;BME280;57055;-35.296;149.168;2023-04-22T03:51:14;96353.54;;;17.58;44.61
61814;BME280;57055;-35.296;149.168;2023-04-22T03:53:42;96354.69;;;17.39;44.39
61814;BME280;57055;-35.296;149.168;2023-04-22T03:56:11;96354.93;;;17.65;44.45
61814;BME280;57055;-35.296;149.168;2023-04-22T03:58:39;96355.65;;;17.49;44.20
61814;BME280;57055;-35.296;149.168;2023-04-22T04:01:08;96348.56;;;17.56;43.99
61814;BME280;57055;-35.296;149.168;2023-04-22T04:03:36;96345.95;;;17.49;44.18
61814;BME280;57055;-35.296;149.168;2023-04-22T04:06:06;96344.65;;;17.53;43.63
61814;BME280;57055;-35.296;149.168;2023-04-22T04:08:34;96340.37;;;17.66;43.23
61814;BME280;57055;-35.296;149.168;2023-04-22T04:11:03;96338.71;;;17.57;43.28
61814;BME280;57055;-35.296;149.168;2023-04-22T04:13:32;96335.95;;;17.13;43.23
61814;BME280;57055;-35.296;149.168;2023-04-22T04:16:01;96335.07;;;17.44;43.58
61814;BME280;57055;-35.296;149.168;2023-04-22T04:18:30;96332.35;;;17.62;43.27
61814;BME280;57055;-35.296;149.168;2023-04-22T04:20:59;96329.47;;;17.58;43.41
61814;BME280;57055;-35.296;149.168;2023-04-22T04:23:27;96322.91;;;17.38;43.96
61814;BME280;57055;-35.296;149.168;2023-04-22T04:25:57;96325.26;;;17.48;43.74
61814;BME280;57055;-35.296;149.168;2023-04-22T04:28:26;96323.57;;;17.49;43.90
61814;BME280;57055;-35.296;149.168;2023-04-22T04:30:55;96322.90;;;17.38;43.86
61814;BME280;57055;-35.296;149.168;2023-04-22T04:33:23;96325.17;;;17.45;43.55
61814;BME280;57055;-35.296;149.168;2023-04-22T04:35:52;96325.87;;;17.45;43.55
61814;BME280;57055;-35.296;149.168;2023-04-22T04:38:21;96319.93;;;17.18;44.22
61814;BME280;57055;-35.296;149.168;2023-04-22T04:40:50;96322.15;;;17.25;45.22
61814;BME280;57055;-35.296;149.168;2023-04-22T04:43:20;96319.66;;;17.34;45.19
61814;BME280;57055;-35.296;149.168;2023-04-22T04:45:49;96319.41;;;17.31;44.81
61814;BME280;57055;-35.296;149.168;2023-04-22T04:48:18;96315.04;;;17.52;44.19
61814;BME280;57055;-35.296;149.168;2023-04-22T04:50:47;96316.72;;;17.16;43.86
61814;BME280;57055;-35.296;149.168;2023-04-22T04:53:15;96311.92;;;17.41;44.18
61814;BME280;57055;-35.296;149.168;2023-04-22T04:55:44;96312.83;;;17.24;44.39
61814;BME280;57055;-35.296;149.168;2023-04-22T04:58:12;96312.32;;;17.33;44.19
61814;BME280;57055;-35.296;149.168;2023-04-22T05:00:42;96311.96;;;17.22;44.00
61814;BME280;57055;-35.296;149.168;2023-04-22T05:03:10;96311.74;;;17.11;44.32
61814;BME280;57055;-35.296;149.168;2023-04-22T05:05:39;96309.85;;;17.19;44.53
61814;BME280;57055;-35.296;149.168;2023-04-22T05:08:08;96307.66;;;17.20;45.14
61814;BME280;57055;-35.296;149.168;2023-04-22T05:10:38;96307.84;;;17.36;45.11
61814;BME280;57055;-35.296;149.168;2023-04-22T05:13:06;96302.79;;;17.43;44.30
61814;BME280;57055;-35.296;149.168;2023-04-22T05:15:35;96303.91;;;17.27;43.64
61814;BME280;57055;-35.296;149.168;2023-04-22T05:18:04;96303.61;;;17.52;43.51
61814;BME280;57055;-35.296;149.168;2023-04-22T05:20:33;96298.95;;;17.04;43.57
61814;BME280;57055;-35.296;149.168;2023-04-22T05:23:01;96297.03;;;17.31;43.24
61814;BME280;57055;-35.296;149.168;2023-04-22T05:25:30;96295.10;;;17.39;43.10
61814;BME280;57055;-35.296;149.168;2023-04-22T05:27:58;96296.25;;;17.40;43.02
61814;BME280;57055;-35.296;149.168;2023-04-22T05:30:27;96292.20;;;17.40;43.11
61814;BME280;57055;-35.296;149.168;2023-04-22T05:32:56;96295.76;;;17.14;43.03
61814;BME280;57055;-35.296;149.168;2023-04-22T05:35:24;96297.90;;;17.22;42.94
61814;BME280;57055;-35.296;149.168;2023-04-22T05:37:53;96293.85;;;17.20;42.78
61814;BME280;57055;-35.296;149.168;2023-04-22T05:40:22;96293.12;;;17.16;42.75
61814;BME280;57055;-35.296;149.168;2023-04-22T05:42:50;96288.38;;;17.20;42.39
61814;BME280;57055;-35.296;149.168;2023-04-22T05:45:19;96289.44;;;17.33;42.75
61814;BME280;57055;-35.296;149.168;2023-04-22T05:47:48;96292.48;;;17.31;43.06
61814;BME280;57055;-35.296;149.168;2023-04-22T05:50:16;96292.75;;;17.24;43.12
61814;BME280;57055;-35.296;149.168;2023-04-22T05:52:45;96295.44;;;17.47;43.22
61814;BME280;57055;-35.296;149.168;2023-04-22T05:55:13;96291.00;;;17.34;42.92
61814;BME280;57055;-35.296;149.168;2023-04-22T05:57:42;96292.26;;;17.54;42.70
61814;BME280;57055;-35.296;149.168;2023-04-22T06:00:11;96294.89;;;17.22;42.59
61814;BME280;57055;-35.296;149.168;2023-04-22T06:02:41;96293.24;;;17.01;42.09
61814;BME280;57055;-35.296;149.168;2023-04-22T06:05:09;96295.19;;;16.93;42.30
61814;BME280;57055;-35.296;149.168;2023-04-22T06:07:40;96293.58;;;16.95;42.36
61814;BME280;57055;-35.296;149.168;2023-04-22T06:10:09;96295.75;;;16.89;42.40
61814;BME280;57055;-35.296;149.168;2023-04-22T06:12:37;96293.29;;;17.08;42.46
61814;BME280;57055;-35.296;149.168;2023-04-22T06:15:07;96291.67;;;16.86;42.78
61814;BME280;57055;-35.296;149.168;2023-04-22T06:17:35;96290.62;;;17.03;42.48
61814;BME280;57055;-35.296;149.168;2023-04-22T06:20:05;96289.12;;;16.90;42.92
61814;BME280;57055;-35.296;149.168;2023-04-22T06:22:34;96290.13;;;16.89;43.08
61814;BME280;57055;-35.296;149.168;2023-04-22T06:25:03;96286.55;;;16.81;42.99
61814;BME280;57055;-35.296;149.168;2023-04-22T06:27:32;96287.87;;;16.99;42.58
61814;BME280;57055;-35.296;149.168;2023-04-22T06:30:01;96292.77;;;16.68;43.17
61814;BME280;57055;-35.296;149.168;2023-04-22T06:32:29;96293.97;;;16.66;43.42
61814;BME280;57055;-35.296;149.168;2023-04-22T06:34:58;96294.09;;;16.59;43.82
61814;BME280;57055;-35.296;149.168;2023-04-22T06:37:26;96295.25;;;16.54;43.86
61814;BME280;57055;-35.296;149.168;2023-04-22T06:39:55;96297.33;;;16.49;44.25
61814;BME280;57055;-35.296;149.168;2023-04-22T06:42:24;96298.36;;;16.52;44.12
61814;BME280;57055;-35.296;149.168;2023-04-22T06:44:53;96299.21;;;16.69;45.11
61814;BME280;57055;-35.296;149.168;2023-04-22T06:47:21;96299.16;;;16.33;45.47
61814;BME280;57055;-35.296;149.168;2023-04-22T06:49:50;96305.90;;;16.43;45.87
61814;BME280;57055;-35.296;149.168;2023-04-22T06:52:19;96307.65;;;16.28;46.35
61814;BME280;57055;-35.296;149.168;2023-04-22T06:54:47;96308.81;;;16.12;47.27
61814;BME280;57055;-35.296;149.168;2023-04-22T06:57:16;96308.97;;;16.20;47.90
61814;BME280;57055;-35.296;149.168;2023-04-22T06:59:44;96308.88;;;16.10;48.20
61814;BME280;57055;-35.296;149.168;2023-04-22T07:02:13;96309.60;;;15.77;48.64
61814;BME280;57055;-35.296;149.168;2023-04-22T07:04:41;96308.58;;;16.02;48.94
61814;BME280;57055;-35.296;149.168;2023-04-22T07:07:10;96310.35;;;15.91;49.57
61814;BME280;57055;-35.296;149.168;2023-04-22T07:09:39;96311.77;;;15.80;50.19
61814;BME280;57055;-35.296;149.168;2023-04-22T07:12:08;96312.29;;;15.63;50.65
61814;BME280;57055;-35.296;149.168;2023-04-22T07:14:39;96316.39;;;15.43;51.35
61814;BME280;57055;-35.296;149.168;2023-04-22T07:17:10;96314.64;;;15.25;51.74
61814;BME280;57055;-35.296;149.168;2023-04-22T07:19:39;96317.76;;;15.35;52.04
61814;BME280;57055;-35.296;149.168;2023-04-22T07:22:08;96317.75;;;15.22;52.43
61814;BME280;57055;-35.296;149.168;2023-04-22T07:24:37;96317.65;;;15.10;52.59
61814;BME280;57055;-35.296;149.168;2023-04-22T07:27:06;96322.17;;;14.99;53.03
61814;BME280;57055;-35.296;149.168;2023-04-22T07:29:34;96322.85;;;14.63;53.36
61814;BME280;57055;-35.296;149.168;2023-04-22T07:32:03;96324.05;;;15.03;53.76
61814;BME280;57055;-35.296;149.168;2023-04-22T07:34:32;96325.66;;;14.64;53.89
61814;BME280;57055;-35.296;149.168;2023-04-22T07:37:01;96328.57;;;14.82;54.24
61814;BME280;57055;-35.296;149.168;2023-04-22T07:39:30;96329.68;;;14.74;54.31
61814;BME280;57055;-35.296;149.168;2023-04-22T07:41:58;96328.18;;;14.38;54.52
61814;BME280;57055;-35.296;149.168;2023-04-22T07:44:27;96326.85;;;14.52;54.63
61814;BME280;57055;-35.296;149.168;2023-04-22T07:46:56;96328.40;;;14.42;54.71
61814;BME280;57055;-35.296;149.168;2023-04-22T07:49:26;96328.06;;;14.34;54.73
61814;BME280;57055;-35.296;149.168;2023-04-22T07:51:55;96329.19;;;14.48;54.78
61814;BME280;57055;-35.296;149.168;2023-04-22T07:54:24;96332.98;;;14.17;55.02
61814;BME280;57055;-35.296;149.168;2023-04-22T07:56:53;96335.85;;;14.27;55.14
61814;BME280;57055;-35.296;149.168;2023-04-22T07:59:21;96335.22;;;14.05;55.07
61814;BME280;57055;-35.296;149.168;2023-04-22T08:01:50;96340.06;;;14.43;55.23
61814;BME280;57055;-35.296;149.168;2023-04-22T08:04:20;96344.67;;;13.98;55.25
61814;BME280;57055;-35.296;149.168;2023-04-22T08:06:49;96351.75;;;14.37;55.23
61814;BME280;57055;-35.296;149.168;2023-04-22T08:09:18;96355.94;;;14.10;55.04
61814;BME280;57055;-35.296;149.168;2023-04-22T08:11:46;96360.50;;;14.18;55.17
61814;BME280;57055;-35.296;149.168;2023-04-22T08:14:15;96361.31;;;14.08;55.45
61814;BME280;57055;-35.296;149.168;2023-04-22T08:16:44;96364.97;;;13.74;55.85
61814;BME280;57055;-35.296;149.168;2023-04-22T08:19:13;96368.11;;;13.86;56.07
61814;BME280;57055;-35.296;149.168;2023-04-22T08:21:42;96371.26;;;13.47;56.56
61814;BME280;57055;-35.296;149.168;2023-04-22T08:24:11;96376.12;;;13.66;56.34
61814;BME280;57055;-35.296;149.168;2023-04-22T08:26:40;96376.35;;;13.62;56.14
61814;BME280;57055;-35.296;149.168;2023-04-22T08:29:10;96378.78;;;13.43;56.19
61814;BME280;57055;-35.296;149.168;2023-04-22T08:31:39;96381.08;;;13.39;56.28
61814;BME280;57055;-35.296;149.168;2023-04-22T08:34:07;96382.03;;;13.33;56.42
61814;BME280;57055;-35.296;149.168;2023-04-22T08:36:36;96384.24;;;13.35;56.34
61814;BME280;57055;-35.296;149.168;2023-04-22T08:39:05;96392.15;;;13.35;56.29
61814;BME280;57055;-35.296;149.168;2023-04-22T08:41:34;96391.67;;;13.24;56.33
61814;BME280;57055;-35.296;149.168;2023-04-22T08:44:05;96395.11;;;13.18;56.31
61814;BME280;57055;-35.296;149.168;2023-04-22T08:46:34;96398.96;;;13.07;56.03
61814;BME280;57055;-35.296;149.168;2023-04-22T08:49:03;96398.80;;;12.93;56.04
61814;BME280;57055;-35.296;149.168;2023-04-22T08:51:32;96403.37;;;12.93;56.23
61814;BME280;57055;-35.296;149.168;2023-04-22T08:54:01;96405.70;;;12.78;56.75
61814;BME280;57055;-35.296;149.168;2023-04-22T08:56:30;96409.51;;;12.71;56.89
61814;BME280;57055;-35.296;149.168;2023-04-22T08:58:59;96412.94;;;12.63;57.22
61814;BME280;57055;-35.296;149.168;2023-04-22T09:01:31;96414.16;;;13.02;57.40
61814;BME280;57055;-35.296;149.168;2023-04-22T09:04:00;96416.54;;;12.75;57.43
61814;BME280;57055;-35.296;149.168;2023-04-22T09:06:31;96419.89;;;12.70;57.45
61814;BME280;57055;-35.296;149.168;2023-04-22T09:09:01;96425.08;;;12.62;57.43
61814;BME280;57055;-35.296;149.168;2023-04-22T09:11:31;96424.45;;;12.48;57.41
61814;BME280;57055;-35.296;149.168;2023-04-22T09:14:00;96428.64;;;12.58;57.63
61814;BME280;57055;-35.296;149.168;2023-04-22T09:16:30;96432.36;;;12.61;57.62
61814;BME280;57055;-35.296;149.168;2023-04-22T09:19:00;96431.23;;;12.49;57.59
61814;BME280;57055;-35.296;149.168;2023-04-22T09:21:33;96436.88;;;12.44;57.42
61814;BME280;57055;-35.296;149.168;2023-04-22T09:24:02;96437.30;;;12.36;57.10
61814;BME280;57055;-35.296;149.168;2023-04-22T09:26:31;96440.68;;;12.24;57.43
61814;BME280;57055;-35.296;149.168;2023-04-22T09:29:00;96445.06;;;12.13;57.43
61814;BME280;57055;-35.296;149.168;2023-04-22T09:31:29;96447.37;;;12.04;57.19
61814;BME280;57055;-35.296;149.168;2023-04-22T09:33:59;96445.37;;;11.97;57.21
61814;BME280;57055;-35.296;149.168;2023-04-22T09:36:29;96449.27;;;11.96;57.35
61814;BME280;57055;-35.296;149.168;2023-04-22T09:38:59;96450.29;;;12.10;57.55
61814;BME280;57055;-35.296;149.168;2023-04-22T09:41:29;96452.40;;;11.84;57.60
61814;BME280;57055;-35.296;149.168;2023-04-22T09:43:59;96453.60;;;11.93;57.53
61814;BME280;57055;-35.296;149.168;2023-04-22T09:46:29;96456.70;;;11.88;57.52
61814;BME280;57055;-35.296;149.168;2023-04-22T09:49:00;96458.98;;;11.84;57.65
61814;BME280;57055;-35.296;149.168;2023-04-22T09:51:29;96460.58;;;11.61;57.75
61814;BME280;57055;-35.296;149.168;2023-04-22T09:54:00;96460.26;;;11.66;57.62
61814;BME280;57055;-35.296;149.168;2023-04-22T09:56:48;96462.95;;;11.65;57.63
61814;BME280;57055;-35.296;149.168;2023-04-22T09:59:21;96463.81;;;11.61;57.57
61814;BME280;57055;-35.296;149.168;2023-04-22T10:01:53;96468.69;;;11.53;57.75
61814;BME280;57055;-35.296;149.168;2023-04-22T10:04:23;96471.62;;;11.48;57.72
61814;BME280;57055;-35.296;149.168;2023-04-22T10:06:53;96472.51;;;11.37;57.88
61814;BME280;57055;-35.296;149.168;2023-04-22T10:09:23;96471.08;;;11.55;58.08
61814;BME280;57055;-35.296;149.168;2023-04-22T10:11:54;96467.73;;;11.25;58.18
61814;BME280;57055;-35.296;149.168;2023-04-22T10:14:23;96469.38;;;11.50;58.14
61814;BME280;57055;-35.296;149.168;2023-04-22T10:16:57;96471.41;;;11.25;57.97
61814;BME280;57055;-35.296;149.168;2023-04-22T10:19:28;96473.53;;;11.55;57.74
61814;BME280;57055;-35.296;149.168;2023-04-22T10:21:59;96473.05;;;11.80;57.69
61814;BME280;57055;-35.296;149.168;2023-04-22T10:24:33;96474.22;;;11.42;58.25
61814;BME280;57055;-35.296;149.168;2023-04-22T10:27:04;96476.51;;;11.21;58.32
61814;BME280;57055;-35.296;149.168;2023-04-22T10:29:37;96475.66;;;11.49;58.22
61814;BME280;57055;-35.296;149.168;2023-04-22T10:32:22;96479.38;;;11.36;58.55
61814;BME280;57055;-35.296;149.168;2023-04-22T10:35:10;96483.15;;;11.22;58.69
61814;BME280;57055;-35.296;149.168;2023-04-22T10:37:42;96486.26;;;11.27;58.21
61814;BME280;57055;-35.296;149.168;2023-04-22T10:40:14;96490.82;;;11.54;58.37
61814;BME280;57055;-35.296;149.168;2023-04-22T10:42:50;96490.33;;;11.25;58.58
61814;BME280;57055;-35.296;149.168;2023-04-22T10:45:24;96488.90;;;11.10;58.97
61814;BME280;57055;-35.296;149.168;2023-04-22T10:47:55;96490.14;;;11.29;59.14
61814;BME280;57055;-35.296;149.168;2023-04-22T10:50:25;96494.13;;;11.01;59.23
61814;BME280;57055;-35.296;149.168;2023-04-22T10:52:57;96495.84;;;11.33;59.01
61814;BME280;57055;-35.296;149.168;2023-04-22T10:55:48;96495.07;;;11.29;59.26
61814;BME280;57055;-35.296;149.168;2023-04-22T10:58:20;96496.15;;;11.19;59.57
61814;BME280;57055;-35.296;149.168;2023-04-22T11:00:50;96496.57;;;11.24;59.26
61814;BME280;57055;-35.296;149.168;2023-04-22T11:03:26;96501.54;;;11.07;59.71
61814;BME280;57055;-35.296;149.168;2023-04-22T11:06:14;96502.47;;;11.07;59.62
61814;BME280;57055;-35.296;149.168;2023-04-22T11:08:45;96496.17;;;11.01;59.75
61814;BME280;57055;-35.296;149.168;2023-04-22T11:11:16;96492.67;;;10.94;59.75
61814;BME280;57055;-35.296;149.168;2023-04-22T11:13:47;96492.27;;;10.86;59.99
61814;BME280;57055;-35.296;149.168;2023-04-22T11:16:16;96492.23;;;10.77;60.00
61814;BME280;57055;-35.296;149.168;2023-04-22T11:18:46;96492.62;;;10.54;59.81
61814;BME280;57055;-35.296;149.168;2023-04-22T11:21:16;96495.71;;;10.80;59.71
61814;BME280;57055;-35.296;149.168;2023-04-22T11:23:50;96503.64;;;10.66;59.85
61814;BME280;57055;-35.296;149.168;2023-04-22T11:26:30;96506.92;;;10.48;60.24
61814;BME280;57055;-35.296;149.168;2023-04-22T11:29:00;96509.20;;;10.52;60.02
61814;BME280;57055;-35.296;149.168;2023-04-22T11:31:29;96511.83;;;10.75;59.96
61814;BME280;57055;-35.296;149.168;2023-04-22T11:33:59;96510.71;;;10.45;59.93
61814;BME280;57055;-35.296;149.168;2023-04-22T11:36:28;96513.53;;;10.28;59.94
61814;BME280;57055;-35.296;149.168;2023-04-22T11:38:57;96512.07;;;10.15;60.04
61814;BME280;57055;-35.296;149.168;2023-04-22T11:41:26;96519.69;;;10.40;59.97
61814;BME280;57055;-35.296;149.168;2023-04-22T11:43:55;96519.91;;;10.16;60.08
61814;BME280;57055;-35.296;149.168;2023-04-22T11:46:31;96517.49;;;10.18;59.86
61814;BME280;57055;-35.296;149.168;2023-04-22T11:49:14;96513.21;;;10.16;59.76
61814;BME280;57055;-35.296;149.168;2023-04-22T11:51:59;96513.74;;;10.35;59.60
61814;BME280;57055;-35.296;149.168;2023-04-22T11:54:32;96513.60;;;10.62;59.64
61814;BME280;57055;-35.296;149.168;2023-04-22T11:57:03;96515.19;;;10.31;59.75
61814;BME280;57055;-35.296;149.168;2023-04-22T11:59:33;96516.08;;;9.99;60.26
61814;BME280;57055;-35.296;149.168;2023-04-22T12:02:05;96516.87;;;10.23;60.38
61814;BME280;57055;-35.296;149.168;2023-04-22T12:04:37;96517.17;;;10.25;60.16
61814;BME280;57055;-35.296;149.168;2023-04-22T12:07:05;96519.06;;;10.23;60.02
61814;BME280;57055;-35.296;149.168;2023-04-22T12:09:34;96518.39;;;10.46;60.21
61814;BME280;57055;-35.296;149.168;2023-04-22T12:12:05;96516.34;;;10.19;60.20
61814;BME280;57055;-35.296;149.168;2023-04-22T12:14:35;96520.09;;;9.93;60.22
61814;BME280;57055;-35.296;149.168;2023-04-22T12:17:04;96519.02;;;10.19;59.91
61814;BME280;57055;-35.296;149.168;2023-04-22T12:19:37;96524.54;;;10.15;59.99
61814;BME280;57055;-35.296;149.168;2023-04-22T12:22:05;96525.25;;;10.34;59.91
61814;BME280;57055;-35.296;149.168;2023-04-22T12:24:34;96528.61;;;10.31;59.93
61814;BME280;57055;-35.296;149.168;2023-04-22T12:27:03;96529.03;;;9.92;59.40
61814;BME280;57055;-35.296;149.168;2023-04-22T12:29:32;96528.73;;;10.41;59.50
61814;BME280;57055;-35.296;149.168;2023-04-22T12:32:01;96531.54;;;10.11;59.65
61814;BME280;57055;-35.296;149.168;2023-04-22T12:34:30;96530.77;;;10.27;59.71
61814;BME280;57055;-35.296;149.168;2023-04-22T12:36:59;96527.50;;;9.89;59.97
61814;BME280;57055;-35.296;149.168;2023-04-22T12:39:28;96526.01;;;10.15;59.84
61814;BME280;57055;-35.296;149.168;2023-04-22T12:41:57;96525.34;;;10.05;59.85